Terminal Aerodrome Forecast
Issued by NWS Twin Cities, MN

Home | Current Version | Previous Version | Text Only | Print | Product List | Glossary On
Versions: 1 2 3 4 5 6 7 8 9 10 11 12 13 14 15 16 17
691
FTUS43 KMPX 261125
TAFEAU
TAF
KEAU 261125Z 2612/2712 26012G20KT P6SM BKN120
     FM261500 29019G28KT P6SM BKN040
     FM270000 30010KT P6SM OVC050=

USA.gov is the U.S. government's official web portal to all federal, state and local government web resources and services.